Portada
METAR-TAF:

METAR-TAF

Aeropuertos :

Maputo, Mozambique

Aeropuerto Internacional de Maputo

latitud: 25-55S, longitud: 032-34E, altitud: 39 m

Observación

El informe se hizo hace 1 hora y 7 minutos, a las 01:00 UTC
Viento calma
Temperatura 19°C
Humedad 94%
Presión 1016 hPa
Visibilidad 10 km o más
Escasas nubes a una altura de 2500 ft

METAR: FQMA 230100Z 00000KT 9999 FEW025 19/18 Q1016 NOSIG

Hora: 04:07 (02:07 UTC)

Pronóstico

El informe se hizo hace 22 horas y 7 minutos, a las 04:00 UTC
Pronóstico válido del 21 a las 06 UTC al 22 a las 12 UTC
Viento 8 kt del suroeste
Visibilidad 10 km o más
Cielo nuboso a una altura de 2000 ft
Evolucionando progresivamente
del 21 a las 12 UTC al 21 a las 14 UTC
Viento 12 kt del sur-sureste
Evolucionando progresivamente
del 21 a las 20 UTC al 21 a las 22 UTC
Viento 8 kt del suroeste

TAF: FQMA 210400Z 2106/2212 23008KT 9999 BKN020 BECMG 2112/2114 15012KT BECMG 2120/2122 22008KT TX29/2113Z TN25/2203Z

Observaciones y pronósticos meteorológicos de más de 4000 aeropuertos (mensajes METAR y TAF).

Los puntos amarillos y rojos representan las estaciones disponibles.

Ponga el ratón en el punto deseado para ver el nombre de la estación.

Haga clic para ver las observaciones y los pronósticos meteorológicos.

Para cambiar el mapa : haga clic en los botones verdes con una cruz de color negro para hacer un zoom, en el botón verde con un guión para alejar o en las flechas verdes para mapas adyacentes.


METAR-TAF: